METAR LSZS 210220Z AUTO VRB01KT CAVOK 08/08 Q1018=